Observations for CRANFIELD, United Kingdom (EGTC)

EGTC 171720Z 21006KT 9999 BKN048 07/04 Q1021
EGTC 171650Z 21006KT 9999 BKN043 07/03 Q1021
EGTC 171550Z 20011KT 9999 FEW033 08/03 Q1021
EGTC 171520Z 22010KT 9999 FEW030 09/03 Q1021
EGTC 171450Z 21008KT 9999 FEW032 09/03 Q1021
EGTC 171420Z 22011KT 9999 SCT030 10/04 Q1021
EGTC 171350Z 21009KT 9999 SCT028 09/04 Q1021
EGTC 171320Z 22011KT 9999 FEW030 08/04 Q1021
EGTC 171250Z 21011KT 9999 FEW025 08/04 Q1021
EGTC 171220Z 22010KT 9999 SCT025 08/04 Q1021
EGTC 171150Z 22010KT 9999 FEW025 09/05 Q1021
EGTC 171120Z 20010KT 9999 FEW025 08/04 Q1021
EGTC 171050Z 18007KT 9999 FEW030 07/04 Q1021
EGTC 171020Z 18007KT CAVOK 07/05 Q1021  
EGTC 170950Z 18007KT 9999 FEW030 06/04 Q1021
EGTC 170920Z 18006KT CAVOK 05/04 Q1021  
EGTC 170850Z 20004KT CAVOK 04/03 Q1021  
EGTC 170820Z 20006KT CAVOK 03/03 Q1020